Time;durP1;ratioP1;P1;durP2;ratioP2;P2;SDS_P1;SDS_P2;PMS_P1;PMS_P2;Temp;Humidity;BMP_temperature;BMP_pressure;BME280_temperature;BME280_humidity;BME280_pressure;Samples;Min_cycle;Max_cycle;Signal;HPM_P1;HPM_P2
2021/11/29 00:02:06;;;;;;;52.33;49.63;;;;;;;;;;4951100;29;20591;-69
2021/11/29 00:04:32;;;;;;;52.83;50.33;;;;;;;;;;4951050;29;20106;-69
2021/11/29 00:06:58;;;;;;;53.35;50.80;;;;;;;;;;4952294;29;20068;-69
2021/11/29 00:09:24;;;;;;;53.60;51.10;;;;;;;;;;4950043;29;20535;-70
2021/11/29 00:11:50;;;;;;;56.67;53.97;;;;;;;;;;4944503;29;20053;-69
2021/11/29 00:14:16;;;;;;;53.47;51.08;;;;;;;;;;4948309;29;20054;-70
2021/11/29 00:16:42;;;;;;;53.67;51.17;;;;;;;;;;4952420;29;20062;-69
2021/11/29 00:19:08;;;;;;;53.50;50.78;;;;;;;;;;4951094;29;20044;-69
2021/11/29 00:21:35;;;;;;;52.90;50.40;;;;;;;;;;4951388;29;20085;-70
2021/11/29 00:24:04;;;;;;;53.42;50.88;;;;;;;;;;4950955;29;20058;-69
2021/11/29 00:26:30;;;;;;;52.75;49.88;;;;;;;;;;4951546;29;20047;-70
2021/11/29 00:28:56;;;;;;;51.65;49.05;;;;;;;;;;4950884;29;20086;-69
2021/11/29 00:31:22;;;;;;;51.08;48.55;;;;;;;;;;4951625;29;20045;-70
2021/11/29 00:33:48;;;;;;;50.22;47.33;;;;;;;;;;4951758;29;20567;-70
2021/11/29 00:36:15;;;;;;;49.85;47.35;;;;;;;;;;4952750;28;20104;-70
2021/11/29 00:38:41;;;;;;;48.20;45.80;;;;;;;;;;4952534;29;20135;-69
2021/11/29 00:41:08;;;;;;;47.05;44.75;;;;;;;;;;4954078;29;20466;-70
2021/11/29 00:43:34;;;;;;;46.38;43.83;;;;;;;;;;4954700;29;20067;-70
2021/11/29 00:46:00;;;;;;;43.90;41.75;;;;;;;;;;4955297;29;20117;-70
2021/11/29 00:48:26;;;;;;;47.70;45.17;;;;;;;;;;4952490;29;20145;-69
2021/11/29 00:50:52;;;;;;;48.00;45.55;;;;;;;;;;4952148;29;20048;-69
2021/11/29 00:53:19;;;;;;;48.08;45.58;;;;;;;;;;4952121;29;20048;-69
2021/11/29 00:55:45;;;;;;;49.10;46.38;;;;;;;;;;4954852;29;20119;-69
2021/11/29 00:58:11;;;;;;;50.03;47.33;;;;;;;;;;4953652;29;20046;-69
2021/11/29 01:00:38;;;;;;;48.58;46.00;;;;;;;;;;4954999;29;20048;-69
2021/11/29 01:03:04;;;;;;;49.22;46.72;;;;;;;;;;4955440;28;20143;-69
2021/11/29 01:05:30;;;;;;;48.53;46.00;;;;;;;;;;4956604;28;20049;-70
2021/11/29 01:07:57;;;;;;;48.35;46.05;;;;;;;;;;4948730;29;20120;-69
2021/11/29 01:10:26;;;;;;;48.80;46.50;;;;;;;;;;4953348;29;20046;-69
2021/11/29 01:12:52;;;;;;;50.33;47.83;;;;;;;;;;4955305;28;20147;-70
2021/11/29 01:15:20;;;;;;;49.95;47.55;;;;;;;;;;4953989;29;20060;-69
2021/11/29 01:17:47;;;;;;;53.65;50.70;;;;;;;;;;4939304;29;20042;-69
2021/11/29 01:20:14;;;;;;;47.72;45.42;;;;;;;;;;4954265;28;20050;-69
2021/11/29 01:22:40;;;;;;;48.45;46.15;;;;;;;;;;4953771;29;20068;-69
2021/11/29 01:25:07;;;;;;;50.55;48.13;;;;;;;;;;4954615;29;20033;-69
2021/11/29 01:27:33;;;;;;;48.83;46.33;;;;;;;;;;4951938;29;20140;-69
2021/11/29 01:29:59;;;;;;;49.03;46.78;;;;;;;;;;4949307;29;20044;-69
2021/11/29 01:32:25;;;;;;;47.40;45.30;;;;;;;;;;4953129;29;20047;-69
2021/11/29 01:34:51;;;;;;;48.22;45.97;;;;;;;;;;4954494;29;20038;-68
2021/11/29 01:37:17;;;;;;;47.22;45.03;;;;;;;;;;4953888;29;20132;-69
2021/11/29 01:39:43;;;;;;;44.67;42.58;;;;;;;;;;4952450;29;20419;-69
2021/11/29 01:42:10;;;;;;;43.13;40.92;;;;;;;;;;4936777;29;20553;-70
2021/11/29 01:44:37;;;;;;;45.63;43.33;;;;;;;;;;4952590;29;20157;-70
2021/11/29 01:47:04;;;;;;;44.95;42.75;;;;;;;;;;4954471;28;20091;-69
2021/11/29 01:49:30;;;;;;;45.95;43.85;;;;;;;;;;4952182;28;20062;-69
2021/11/29 01:51:56;;;;;;;45.03;42.92;;;;;;;;;;4953235;29;20096;-69
2021/11/29 01:54:23;;;;;;;45.00;42.92;;;;;;;;;;4960607;28;20053;-69
2021/11/29 01:56:49;;;;;;;43.70;41.45;;;;;;;;;;4950435;29;20137;-69
2021/11/29 01:59:15;;;;;;;43.20;40.92;;;;;;;;;;4951787;29;20446;-69
2021/11/29 02:01:41;;;;;;;44.83;42.63;;;;;;;;;;4952104;29;20046;-69
2021/11/29 02:04:11;;;;;;;48.08;45.45;;;;;;;;;;4949720;29;20063;-69
2021/11/29 02:06:38;;;;;;;48.55;46.05;;;;;;;;;;4953207;29;20074;-69
2021/11/29 02:09:06;;;;;;;48.60;45.80;;;;;;;;;;4952883;29;20095;-69
2021/11/29 02:11:32;;;;;;;47.72;44.80;;;;;;;;;;4950973;29;20034;-69
2021/11/29 02:14:00;;;;;;;49.47;46.58;;;;;;;;;;4952043;29;20089;-69
2021/11/29 02:16:27;;;;;;;48.25;45.60;;;;;;;;;;4956437;28;20081;-68
2021/11/29 02:18:53;;;;;;;43.33;41.03;;;;;;;;;;4935194;29;20049;-69
2021/11/29 02:21:20;;;;;;;45.53;43.03;;;;;;;;;;4952229;29;20067;-69
2021/11/29 02:23:48;;;;;;;47.83;44.85;;;;;;;;;;4952004;28;20118;-69
2021/11/29 02:26:15;;;;;;;47.90;45.20;;;;;;;;;;4936274;29;20057;-68
2021/11/29 02:28:43;;;;;;;44.83;42.42;;;;;;;;;;4944112;29;20038;-68
2021/11/29 02:31:10;;;;;;;43.92;41.63;;;;;;;;;;4952518;29;20042;-69
2021/11/29 02:33:36;;;;;;;45.55;42.80;;;;;;;;;;4950825;28;20055;-69
2021/11/29 02:36:03;;;;;;;51.53;48.83;;;;;;;;;;4953896;29;20043;-69
2021/11/29 02:38:30;;;;;;;51.35;48.65;;;;;;;;;;4950476;29;20046;-68
2021/11/29 02:40:56;;;;;;;49.15;46.65;;;;;;;;;;4953450;29;20572;-69
2021/11/29 02:43:22;;;;;;;48.55;45.97;;;;;;;;;;4950845;28;20135;-69
2021/11/29 02:45:48;;;;;;;47.63;45.22;;;;;;;;;;4945458;28;20079;-69
2021/11/29 02:48:14;;;;;;;45.33;42.92;;;;;;;;;;4950732;28;20048;-69
2021/11/29 02:50:40;;;;;;;44.50;42.20;;;;;;;;;;4951175;29;20044;-68
2021/11/29 02:53:09;;;;;;;46.75;44.55;;;;;;;;;;4935706;29;20058;-69
2021/11/29 02:55:38;;;;;;;46.33;43.53;;;;;;;;;;4953288;29;20055;-68
2021/11/29 02:58:04;;;;;;;45.92;43.53;;;;;;;;;;4949502;29;20689;-68
2021/11/29 03:00:30;;;;;;;43.65;41.35;;;;;;;;;;4952912;28;20539;-69
2021/11/29 03:03:07;;;;;;;39.47;37.42;;;;;;;;;;4951125;28;20188;-68
2021/11/29 03:05:33;;;;;;;40.53;38.53;;;;;;;;;;4949332;29;20046;-68
2021/11/29 03:07:59;;;;;;;42.10;40.00;;;;;;;;;;4951653;29;20432;-68
2021/11/29 03:10:25;;;;;;;44.65;42.25;;;;;;;;;;4935586;29;20583;-68
2021/11/29 03:12:51;;;;;;;45.72;42.83;;;;;;;;;;4950830;29;20061;-69
2021/11/29 03:15:17;;;;;;;44.35;41.85;;;;;;;;;;4952596;29;20424;-68
2021/11/29 03:17:44;;;;;;;45.25;42.95;;;;;;;;;;4951891;29;20047;-69
2021/11/29 03:20:11;;;;;;;44.60;42.40;;;;;;;;;;4952951;29;20050;-68
2021/11/29 03:22:37;;;;;;;48.28;45.88;;;;;;;;;;4946425;29;20106;-68
2021/11/29 03:25:03;;;;;;;47.60;45.40;;;;;;;;;;4952163;28;20115;-68
2021/11/29 03:27:29;;;;;;;44.47;42.28;;;;;;;;;;4952801;28;20044;-68
2021/11/29 03:29:55;;;;;;;43.47;41.28;;;;;;;;;;4946417;29;20051;-69
2021/11/29 03:32:22;;;;;;;44.65;42.25;;;;;;;;;;4951901;28;20044;-68
2021/11/29 03:34:49;;;;;;;48.50;46.20;;;;;;;;;;4950245;29;20058;-68
2021/11/29 03:37:15;;;;;;;48.55;46.05;;;;;;;;;;4952542;29;20083;-68
2021/11/29 03:39:41;;;;;;;44.13;41.63;;;;;;;;;;4950940;29;20501;-68
2021/11/29 03:42:07;;;;;;;42.13;39.95;;;;;;;;;;4951763;29;20514;-68
2021/11/29 03:44:34;;;;;;;37.50;35.47;;;;;;;;;;4951517;29;20063;-68
2021/11/29 03:47:00;;;;;;;37.47;35.40;;;;;;;;;;4952538;29;20080;-68
2021/11/29 03:49:27;;;;;;;524.20;386.70;;;;;;;;;;4933178;29;20462;-69
2021/11/29 03:51:53;;;;;;;40.85;38.95;;;;;;;;;;4951173;29;20038;-69
2021/11/29 03:54:20;;;;;;;37.97;35.90;;;;;;;;;;4951578;29;20066;-68
2021/11/29 03:56:46;;;;;;;37.63;35.63;;;;;;;;;;4950736;28;20079;-68
2021/11/29 03:59:12;;;;;;;38.85;36.47;;;;;;;;;;4952457;28;20043;-68
2021/11/29 04:01:38;;;;;;;35.72;33.80;;;;;;;;;;4947255;29;20052;-68
2021/11/29 04:04:04;;;;;;;38.30;36.20;;;;;;;;;;4949700;29;20060;-68
2021/11/29 04:06:30;;;;;;;41.70;39.13;;;;;;;;;;4951696;29;20122;-68
2021/11/29 04:08:57;;;;;;;42.22;39.85;;;;;;;;;;4949458;29;20032;-68
2021/11/29 04:11:23;;;;;;;42.75;40.28;;;;;;;;;;4950716;28;20487;-68
2021/11/29 04:13:49;;;;;;;44.15;41.53;;;;;;;;;;4953065;29;20056;-68
2021/11/29 04:16:17;;;;;;;43.33;40.78;;;;;;;;;;4955831;29;20101;-68
2021/11/29 04:18:43;;;;;;;46.30;43.85;;;;;;;;;;4954503;29;20078;-68
2021/11/29 04:21:11;;;;;;;46.35;43.85;;;;;;;;;;4949890;29;20038;-68
2021/11/29 04:23:37;;;;;;;51.42;48.25;;;;;;;;;;4951490;29;20052;-68
2021/11/29 04:26:04;;;;;;;50.60;47.70;;;;;;;;;;4950259;29;20038;-68
2021/11/29 04:28:31;;;;;;;50.53;47.28;;;;;;;;;;4952425;29;20051;-68
2021/11/29 04:30:57;;;;;;;54.05;50.10;;;;;;;;;;4954269;29;20051;-68
2021/11/29 04:33:24;;;;;;;55.58;51.72;;;;;;;;;;4953954;29;20052;-68
2021/11/29 04:35:50;;;;;;;58.65;54.80;;;;;;;;;;4952173;29;20043;-68
2021/11/29 04:38:16;;;;;;;58.75;54.80;;;;;;;;;;4954689;28;20490;-69
2021/11/29 04:40:42;;;;;;;69.55;64.10;;;;;;;;;;4946466;28;20041;-68
2021/11/29 04:43:08;;;;;;;74.38;69.43;;;;;;;;;;4954778;29;20055;-68
2021/11/29 04:45:34;;;;;;;75.10;70.65;;;;;;;;;;4952030;29;20042;-68
2021/11/29 04:48:00;;;;;;;78.72;73.32;;;;;;;;;;4947830;28;20488;-68
2021/11/29 04:50:27;;;;;;;95.10;89.82;;;;;;;;;;4955199;29;20072;-68
2021/11/29 04:52:53;;;;;;;96.90;91.85;;;;;;;;;;4951204;29;20050;-68
2021/11/29 04:55:19;;;;;;;92.80;87.70;;;;;;;;;;4953669;29;20061;-68
2021/11/29 04:57:45;;;;;;;92.70;87.38;;;;;;;;;;4953161;29;20044;-68
2021/11/29 05:00:12;;;;;;;90.95;85.57;;;;;;;;;;4953504;29;20054;-68
2021/11/29 05:02:38;;;;;;;83.00;78.25;;;;;;;;;;4954457;29;20109;-68
2021/11/29 05:05:05;;;;;;;82.90;77.22;;;;;;;;;;4940544;29;20051;-68
2021/11/29 05:07:31;;;;;;;83.25;78.50;;;;;;;;;;4953841;28;20056;-69
2021/11/29 05:09:57;;;;;;;86.80;82.35;;;;;;;;;;4954824;29;20043;-68
2021/11/29 05:12:23;;;;;;;83.45;79.10;;;;;;;;;;4950716;29;20064;-69
2021/11/29 05:14:50;;;;;;;82.95;78.15;;;;;;;;;;4938107;29;20071;-68
2021/11/29 05:17:17;;;;;;;87.70;82.35;;;;;;;;;;4953946;28;20042;-69
2021/11/29 05:19:43;;;;;;;101.88;95.63;;;;;;;;;;4952207;29;20040;-68
2021/11/29 05:22:09;;;;;;;97.65;92.78;;;;;;;;;;4950526;28;20053;-68
2021/11/29 05:24:36;;;;;;;93.90;88.30;;;;;;;;;;4953434;29;20068;-68
2021/11/29 05:27:04;;;;;;;88.65;83.93;;;;;;;;;;4956894;28;20053;-68
2021/11/29 05:29:30;;;;;;;78.32;74.32;;;;;;;;;;4951784;29;20066;-69
2021/11/29 05:31:56;;;;;;;75.85;70.63;;;;;;;;;;4954795;29;20136;-68
2021/11/29 05:34:22;;;;;;;70.47;66.70;;;;;;;;;;4952989;29;20048;-68
2021/11/29 05:36:48;;;;;;;66.68;61.28;;;;;;;;;;4952894;28;20048;-68
2021/11/29 05:39:15;;;;;;;85.45;79.50;;;;;;;;;;4952966;29;20044;-69
2021/11/29 05:41:41;;;;;;;84.10;78.43;;;;;;;;;;4952991;29;20050;-69
2021/11/29 05:44:07;;;;;;;85.55;79.63;;;;;;;;;;4952618;28;20142;-69
2021/11/29 05:46:33;;;;;;;82.20;77.45;;;;;;;;;;4960250;28;20073;-69
2021/11/29 05:49:01;;;;;;;79.60;75.18;;;;;;;;;;4950892;29;20076;-69
2021/11/29 05:51:27;;;;;;;81.65;76.15;;;;;;;;;;4953633;29;20095;-69
2021/11/29 05:53:53;;;;;;;78.60;74.20;;;;;;;;;;4953606;28;20053;-70
2021/11/29 05:56:20;;;;;;;76.25;71.30;;;;;;;;;;4949269;29;20084;-69
2021/11/29 05:58:46;;;;;;;78.78;73.78;;;;;;;;;;4949633;29;20094;-69
2021/11/29 06:01:12;;;;;;;83.10;77.93;;;;;;;;;;4949869;28;20041;-69
2021/11/29 06:03:38;;;;;;;80.50;75.38;;;;;;;;;;4950999;28;20089;-68
2021/11/29 06:06:04;;;;;;;79.63;75.15;;;;;;;;;;4951208;28;20044;-69
2021/11/29 06:08:30;;;;;;;85.38;80.90;;;;;;;;;;4956278;28;20027;-69
2021/11/29 06:10:56;;;;;;;85.95;81.10;;;;;;;;;;4958570;28;20430;-69
2021/11/29 06:13:22;;;;;;;88.95;84.30;;;;;;;;;;4950840;29;20045;-69
2021/11/29 06:15:48;;;;;;;84.18;79.10;;;;;;;;;;4948708;28;20046;-69
2021/11/29 06:18:14;;;;;;;81.13;76.47;;;;;;;;;;4947570;28;20046;-68
2021/11/29 06:20:40;;;;;;;79.00;74.65;;;;;;;;;;4948679;29;20047;-69
2021/11/29 06:23:07;;;;;;;83.07;77.85;;;;;;;;;;4953365;28;20056;-69
2021/11/29 06:25:37;;;;;;;79.55;74.93;;;;;;;;;;5024627;23;20058;-80
2021/11/29 06:28:03;;;;;;;74.10;70.18;;;;;;;;;;4980151;28;20122;-81
2021/11/29 06:30:29;;;;;;;75.03;69.82;;;;;;;;;;4974348;28;20101;-81
2021/11/29 06:32:55;;;;;;;75.05;69.90;;;;;;;;;;4972696;28;20512;-79
2021/11/29 06:35:21;;;;;;;70.10;66.30;;;;;;;;;;4955188;28;20048;-79
2021/11/29 06:37:48;;;;;;;70.90;66.97;;;;;;;;;;4972510;28;20023;-80
2021/11/29 06:40:15;;;;;;;70.07;65.57;;;;;;;;;;4972597;28;20046;-80
2021/11/29 06:42:41;;;;;;;60.15;56.75;;;;;;;;;;4971687;28;20050;-79
2021/11/29 06:45:07;;;;;;;63.17;59.63;;;;;;;;;;4972897;28;20041;-80
2021/11/29 06:47:33;;;;;;;69.75;66.07;;;;;;;;;;4972380;28;20042;-80
2021/11/29 06:49:59;;;;;;;67.10;63.05;;;;;;;;;;4972045;28;20056;-81
2021/11/29 06:52:25;;;;;;;65.32;61.55;;;;;;;;;;4970188;28;20083;-80
2021/11/29 06:54:51;;;;;;;70.93;66.15;;;;;;;;;;4969389;28;20045;-80
2021/11/29 06:57:18;;;;;;;58.60;55.22;;;;;;;;;;4974346;28;20402;-79
2021/11/29 06:59:46;;;;;;;58.80;55.65;;;;;;;;;;4976579;28;20046;-79
2021/11/29 07:02:13;;;;;;;59.85;56.65;;;;;;;;;;4976086;28;20085;-79
2021/11/29 07:04:40;;;;;;;58.08;54.67;;;;;;;;;;4965456;28;20312;-80
2021/11/29 07:07:06;;;;;;;52.70;49.38;;;;;;;;;;4984193;28;20638;-79
2021/11/29 07:09:32;;;;;;;57.08;53.88;;;;;;;;;;4971568;28;20042;-80
2021/11/29 07:11:58;;;;;;;59.83;56.53;;;;;;;;;;4950684;28;20049;-81
2021/11/29 07:14:25;;;;;;;58.67;55.22;;;;;;;;;;4975331;28;20042;-80
2021/11/29 07:16:51;;;;;;;58.53;54.72;;;;;;;;;;4974424;28;20124;-80
2021/11/29 07:19:18;;;;;;;54.17;50.97;;;;;;;;;;4951352;28;20424;-81
2021/11/29 07:21:44;;;;;;;53.80;50.42;;;;;;;;;;4986976;28;20044;-81
2021/11/29 07:24:11;;;;;;;46.30;43.67;;;;;;;;;;4977365;28;20064;-81
2021/11/29 07:26:37;;;;;;;44.88;42.22;;;;;;;;;;4969481;28;20634;-81
2021/11/29 07:29:04;;;;;;;40.35;38.05;;;;;;;;;;4981424;28;20045;-79
2021/11/29 07:31:30;;;;;;;42.33;40.05;;;;;;;;;;4987662;28;20046;-80
2021/11/29 07:33:56;;;;;;;40.78;38.10;;;;;;;;;;4982989;28;20152;-80
2021/11/29 07:36:22;;;;;;;42.30;39.38;;;;;;;;;;4982852;28;20055;-80
2021/11/29 07:38:48;;;;;;;38.65;35.70;;;;;;;;;;4984514;28;20383;-80
2021/11/29 07:41:14;;;;;;;38.78;36.63;;;;;;;;;;4973326;28;20482;-80
2021/11/29 07:43:40;;;;;;;36.60;34.20;;;;;;;;;;4989623;28;20173;-80
2021/11/29 07:46:06;;;;;;;39.40;36.03;;;;;;;;;;4958283;28;20042;-79
2021/11/29 07:48:32;;;;;;;34.22;31.30;;;;;;;;;;4973194;28;20422;-80
2021/11/29 07:50:58;;;;;;;39.22;36.47;;;;;;;;;;4976478;28;20052;-80
2021/11/29 07:53:25;;;;;;;36.40;33.17;;;;;;;;;;4986046;28;20050;-80
2021/11/29 07:55:51;;;;;;;33.25;30.92;;;;;;;;;;4980384;28;20188;-81
2021/11/29 07:58:20;;;;;;;37.75;34.97;;;;;;;;;;4954812;28;20046;-81
2021/11/29 08:00:46;;;;;;;38.88;35.97;;;;;;;;;;4952374;28;20085;-80
2021/11/29 08:03:12;;;;;;;40.47;37.05;;;;;;;;;;4964882;28;20072;-81
2021/11/29 08:05:39;;;;;;;45.67;41.45;;;;;;;;;;4970229;28;20034;-80
2021/11/29 08:08:05;;;;;;;42.97;39.95;;;;;;;;;;4946855;28;20132;-83
2021/11/29 08:10:34;;;;;;;40.78;37.83;;;;;;;;;;4981156;28;20562;-81
2021/11/29 08:13:00;;;;;;;44.03;40.78;;;;;;;;;;4974221;28;20297;-82
2021/11/29 08:15:26;;;;;;;38.05;34.92;;;;;;;;;;4953590;28;20054;-80
2021/11/29 08:17:52;;;;;;;40.55;37.15;;;;;;;;;;4968345;28;20121;-78
2021/11/29 08:20:19;;;;;;;46.70;43.05;;;;;;;;;;4972476;28;20505;-79
2021/11/29 08:22:45;;;;;;;51.42;48.05;;;;;;;;;;4976995;28;20037;-79
2021/11/29 08:25:11;;;;;;;51.25;47.17;;;;;;;;;;4990102;28;20498;-79
2021/11/29 08:27:37;;;;;;;54.83;51.28;;;;;;;;;;4976003;28;20530;-79
2021/11/29 08:30:05;;;;;;;52.10;48.20;;;;;;;;;;4984957;28;20038;-79
2021/11/29 08:32:31;;;;;;;56.35;53.20;;;;;;;;;;4978765;28;20046;-79
2021/11/29 08:34:57;;;;;;;59.03;54.88;;;;;;;;;;4975318;28;20439;-80
2021/11/29 08:37:23;;;;;;;61.28;56.80;;;;;;;;;;4964533;28;20567;-80
2021/11/29 08:39:49;;;;;;;59.45;54.92;;;;;;;;;;4983042;28;20034;-80
2021/11/29 08:42:15;;;;;;;63.22;58.20;;;;;;;;;;4980134;28;20051;-79
2021/11/29 08:44:41;;;;;;;60.33;56.17;;;;;;;;;;4975864;28;20403;-79
2021/11/29 08:47:08;;;;;;;60.97;56.88;;;;;;;;;;4983722;28;20466;-80
2021/11/29 08:49:34;;;;;;;60.65;57.60;;;;;;;;;;4978807;28;20044;-79
2021/11/29 08:52:00;;;;;;;66.25;61.63;;;;;;;;;;4978102;28;20035;-79
2021/11/29 08:54:26;;;;;;;62.13;57.38;;;;;;;;;;4978075;28;20135;-79
2021/11/29 08:56:52;;;;;;;59.85;56.22;;;;;;;;;;4979026;28;20051;-80
2021/11/29 08:59:20;;;;;;;57.67;54.85;;;;;;;;;;4983428;28;20044;-80
2021/11/29 09:01:46;;;;;;;57.72;54.45;;;;;;;;;;4964250;28;20045;-79
2021/11/29 09:04:13;;;;;;;58.70;55.10;;;;;;;;;;4958291;28;20070;-80
2021/11/29 09:06:39;;;;;;;55.70;52.35;;;;;;;;;;4965244;28;20861;-80
2021/11/29 09:09:06;;;;;;;60.33;56.88;;;;;;;;;;4959205;28;20045;-79
2021/11/29 09:11:32;;;;;;;57.72;53.90;;;;;;;;;;4971155;28;20137;-79
2021/11/29 09:13:58;;;;;;;53.35;50.15;;;;;;;;;;4955902;28;20104;-80
2021/11/29 09:16:24;;;;;;;53.00;48.90;;;;;;;;;;4978128;28;20116;-81
2021/11/29 09:18:50;;;;;;;49.42;46.58;;;;;;;;;;4972494;28;20145;-81
2021/11/29 09:21:18;;;;;;;44.65;41.90;;;;;;;;;;4968042;28;20044;-81
2021/11/29 09:23:45;;;;;;;37.45;35.13;;;;;;;;;;4989289;28;20072;-80
2021/11/29 09:26:11;;;;;;;30.75;28.90;;;;;;;;;;4983841;28;20578;-80
2021/11/29 09:28:38;;;;;;;27.75;25.83;;;;;;;;;;4977270;28;20500;-80
2021/11/29 09:31:04;;;;;;;30.02;27.55;;;;;;;;;;4955327;28;20149;-81
2021/11/29 09:33:31;;;;;;;32.45;29.42;;;;;;;;;;4981329;28;20054;-80
2021/11/29 09:35:57;;;;;;;30.30;28.08;;;;;;;;;;4980234;28;20182;-81
2021/11/29 09:38:23;;;;;;;28.98;26.17;;;;;;;;;;4964290;28;20045;-80
2021/11/29 09:40:49;;;;;;;28.48;26.42;;;;;;;;;;4985546;28;20526;-80
2021/11/29 09:43:16;;;;;;;32.47;30.25;;;;;;;;;;4992318;28;20057;-81
2021/11/29 09:45:43;;;;;;;34.88;32.22;;;;;;;;;;4977532;28;20037;-80
2021/11/29 09:48:10;;;;;;;35.03;32.78;;;;;;;;;;4983586;28;20051;-79
2021/11/29 09:50:40;;;;;;;36.03;33.25;;;;;;;;;;4981479;28;20035;-79
2021/11/29 09:53:06;;;;;;;30.25;27.80;;;;;;;;;;4954961;28;20041;-80
2021/11/29 09:55:32;;;;;;;28.70;26.73;;;;;;;;;;4975124;28;20109;-79
2021/11/29 09:58:01;;;;;;;29.90;27.48;;;;;;;;;;4955575;28;20106;-81
2021/11/29 10:00:29;;;;;;;35.15;29.98;;;;;;;;;;4959018;28;20043;-81
2021/11/29 10:02:55;;;;;;;32.13;29.30;;;;;;;;;;4981871;28;20042;-80
2021/11/29 10:05:22;;;;;;;28.65;25.83;;;;;;;;;;4955525;28;20088;-79
2021/11/29 10:07:49;;;;;;;27.45;25.10;;;;;;;;;;4974290;28;20223;-80
2021/11/29 10:10:24;;;;;;;25.98;24.02;;;;;;;;;;4977726;28;20049;-80
2021/11/29 10:12:51;;;;;;;27.30;24.80;;;;;;;;;;4983015;28;20098;-80
2021/11/29 10:15:21;;;;;;;23.50;21.33;;;;;;;;;;4962240;28;20590;-80
2021/11/29 10:17:47;;;;;;;21.52;19.67;;;;;;;;;;4979809;28;20033;-79
2021/11/29 10:20:14;;;;;;;22.38;20.65;;;;;;;;;;4989254;28;20076;-80
2021/11/29 10:22:54;;;;;;;26.30;20.25;;;;;;;;;;4978933;28;20483;-80
2021/11/29 10:25:21;;;;;;;23.40;21.23;;;;;;;;;;4971446;28;20035;-80
2021/11/29 10:27:47;;;;;;;24.55;22.20;;;;;;;;;;4978872;28;20301;-80
2021/11/29 10:30:17;;;;;;;25.95;22.38;;;;;;;;;;4980700;28;20060;-81
2021/11/29 10:32:45;;;;;;;22.90;20.50;;;;;;;;;;4978892;28;20045;-80
2021/11/29 10:35:13;;;;;;;22.90;19.02;;;;;;;;;;4979790;28;20026;-79
2021/11/29 10:37:42;;;;;;;24.80;16.15;;;;;;;;;;4985913;28;20392;-79
2021/11/29 10:40:09;;;;;;;17.45;14.07;;;;;;;;;;4966049;28;20041;-79
2021/11/29 10:42:35;;;;;;;16.80;12.07;;;;;;;;;;4978449;28;20101;-79
2021/11/29 10:45:01;;;;;;;12.38;11.18;;;;;;;;;;4972301;28;20100;-80
2021/11/29 10:47:32;;;;;;;14.52;11.02;;;;;;;;;;4987670;28;20040;-81
2021/11/29 10:49:59;;;;;;;16.67;12.15;;;;;;;;;;4984867;28;20038;-80
2021/11/29 10:52:27;;;;;;;15.48;11.90;;;;;;;;;;4978145;28;20045;-80
2021/11/29 10:54:54;;;;;;;23.90;11.77;;;;;;;;;;4978677;28;20411;-79
2021/11/29 10:57:21;;;;;;;14.43;11.70;;;;;;;;;;4990711;28;20034;-79
2021/11/29 10:59:50;;;;;;;16.48;15.05;;;;;;;;;;4984321;28;20060;-80
2021/11/29 11:02:32;;;;;;;14.80;13.38;;;;;;;;;;4985695;28;20047;-80
2021/11/29 11:04:57;;;;;;;;;;;;;;;;;;4976559;28;20162;-80
2021/11/29 11:07:25;;;;;;;18.20;11.35;;;;;;;;;;4973593;28;20038;-80
2021/11/29 11:09:59;;;;;;;11.88;9.52;;;;;;;;;;4968581;28;20047;-80
2021/11/29 11:12:27;;;;;;;14.65;9.55;;;;;;;;;;4968006;28;20491;-80
2021/11/29 11:14:55;;;;;;;14.93;8.85;;;;;;;;;;4970503;28;20073;-80
2021/11/29 11:17:22;;;;;;;16.17;8.82;;;;;;;;;;4979673;28;20062;-80
2021/11/29 11:19:49;;;;;;;16.33;9.60;;;;;;;;;;4983181;28;20030;-80
2021/11/29 11:22:21;;;;;;;19.85;9.45;;;;;;;;;;4974937;28;20550;-80
2021/11/29 11:24:50;;;;;;;18.85;8.98;;;;;;;;;;4955844;28;20391;-79
2021/11/29 11:27:17;;;;;;;16.08;9.68;;;;;;;;;;4981074;28;20068;-80
2021/11/29 11:29:50;;;;;;;24.85;10.73;;;;;;;;;;4976892;28;20059;-80
2021/11/29 11:32:32;;;;;;;20.48;11.63;;;;;;;;;;4976419;28;20482;-80
2021/11/29 11:35:00;;;;;;;20.20;8.43;;;;;;;;;;4971064;28;20104;-80
2021/11/29 11:37:29;;;;;;;15.35;8.48;;;;;;;;;;4979629;28;20537;-80
2021/11/29 11:39:55;;;;;;;13.35;9.10;;;;;;;;;;4979481;28;20459;-80
2021/11/29 11:42:22;;;;;;;17.55;8.38;;;;;;;;;;4974836;28;20162;-79
2021/11/29 11:44:49;;;;;;;12.45;7.78;;;;;;;;;;4981776;28;20596;-79
2021/11/29 11:47:15;;;;;;;16.13;8.95;;;;;;;;;;4979006;28;20052;-80
2021/11/29 11:49:42;;;;;;;12.77;9.88;;;;;;;;;;4975613;28;20392;-79
2021/11/29 11:52:10;;;;;;;15.98;9.25;;;;;;;;;;4981821;28;20037;-79
2021/11/29 11:54:40;;;;;;;12.55;10.02;;;;;;;;;;4981515;28;20044;-79
2021/11/29 11:57:07;;;;;;;19.38;9.45;;;;;;;;;;4975871;28;20145;-79
2021/11/29 12:00:05;;;;;;;13.40;9.80;;;;;;;;;;4973962;28;20400;-79
2021/11/29 12:02:44;;;;;;;13.52;9.10;;;;;;;;;;4932456;28;20057;-79
2021/11/29 12:05:17;;;;;;;12.43;8.68;;;;;;;;;;4960662;28;20548;-79
2021/11/29 12:07:44;;;;;;;13.32;9.02;;;;;;;;;;4959301;28;20252;-79
2021/11/29 12:10:28;;;;;;;14.93;9.07;;;;;;;;;;4983371;28;20128;-79
2021/11/29 12:12:57;;;;;;;13.27;9.23;;;;;;;;;;4977282;28;20042;-79
2021/11/29 12:15:35;;;;;;;12.48;8.82;;;;;;;;;;4970168;28;20423;-79
2021/11/29 12:18:01;;;;;;;16.02;9.18;;;;;;;;;;4975923;28;20235;-79
2021/11/29 12:20:27;;;;;;;15.10;9.20;;;;;;;;;;4977981;28;20507;-80
2021/11/29 12:22:54;;;;;;;12.73;8.73;;;;;;;;;;4969865;28;20038;-80
2021/11/29 12:25:24;;;;;;;11.60;9.35;;;;;;;;;;4978374;23;20514;-79
2021/11/29 12:30:34;;;;;;;18.13;10.35;;;;;;;;;;4948640;28;20485;-76
2021/11/29 12:33:02;;;;;;;17.13;10.32;;;;;;;;;;4953030;28;20129;-75
2021/11/29 12:35:35;;;;;;;14.77;10.00;;;;;;;;;;4951122;28;20079;-76
2021/11/29 12:38:04;;;;;;;15.48;10.10;;;;;;;;;;4952544;28;20364;-75
2021/11/29 12:40:41;;;;;;;15.65;9.60;;;;;;;;;;4952084;28;20031;-77
2021/11/29 12:43:07;;;;;;;13.32;8.57;;;;;;;;;;4950888;28;20421;-76
2021/11/29 12:45:34;;;;;;;15.27;10.38;;;;;;;;;;4953229;28;20041;-74
2021/11/29 12:48:04;;;;;;;14.60;9.80;;;;;;;;;;4953463;28;20089;-75
2021/11/29 12:50:34;;;;;;;17.88;9.57;;;;;;;;;;4954106;28;20042;-75
2021/11/29 12:53:09;;;;;;;17.83;9.43;;;;;;;;;;4953400;28;20047;-75
2021/11/29 12:55:36;;;;;;;15.20;9.43;;;;;;;;;;4956552;28;20038;-74
2021/11/29 12:58:16;;;;;;;14.15;8.68;;;;;;;;;;4933496;29;20191;-74
2021/11/29 13:00:43;;;;;;;12.70;9.68;;;;;;;;;;4956852;28;20045;-76
2021/11/29 13:03:11;;;;;;;18.77;11.40;;;;;;;;;;4934230;29;20445;-76
2021/11/29 13:05:46;;;;;;;17.67;14.20;;;;;;;;;;4948671;28;20038;-76
2021/11/29 13:08:14;;;;;;;20.38;17.58;;;;;;;;;;4948650;28;20024;-76
2021/11/29 13:10:52;;;;;;;25.48;23.38;;;;;;;;;;4946966;28;20111;-76
2021/11/29 13:13:30;;;;;;;29.42;26.88;;;;;;;;;;4947468;28;20081;-75
2021/11/29 13:16:04;;;;;;;31.77;29.63;;;;;;;;;;4950910;28;20267;-75
2021/11/29 13:18:54;;;;;;;32.20;29.98;;;;;;;;;;4942682;28;20038;-75
2021/11/29 13:21:26;;;;;;;24.48;22.55;;;;;;;;;;4946308;28;20495;-77
2021/11/29 13:24:11;;;;;;;21.20;19.20;;;;;;;;;;4946860;28;20476;-74
2021/11/29 13:26:40;;;;;;;22.73;20.25;;;;;;;;;;4948928;28;20532;-76
2021/11/29 13:29:11;;;;;;;21.52;19.63;;;;;;;;;;4946556;28;20074;-76
2021/11/29 13:31:38;;;;;;;24.45;21.77;;;;;;;;;;4949038;28;20046;-74
2021/11/29 13:34:06;;;;;;;24.48;22.42;;;;;;;;;;4932861;29;20023;-74
2021/11/29 13:36:34;;;;;;;32.47;29.75;;;;;;;;;;4951070;28;20074;-75
2021/11/29 13:39:09;;;;;;;36.10;33.00;;;;;;;;;;4944149;28;20027;-76
2021/11/29 13:41:35;;;;;;;43.00;39.53;;;;;;;;;;4944777;28;20934;-74
2021/11/29 13:44:37;;;;;;;41.90;38.42;;;;;;;;;;4944034;28;20532;-74
2021/11/29 13:47:03;;;;;;;45.10;41.63;;;;;;;;;;4907464;29;20500;-75
2021/11/29 13:49:30;;;;;;;44.75;42.00;;;;;;;;;;4938762;28;20061;-74
2021/11/29 13:51:56;;;;;;;49.50;46.40;;;;;;;;;;4949529;28;20441;-76
2021/11/29 13:54:22;;;;;;;49.65;46.92;;;;;;;;;;4946099;28;20449;-74
2021/11/29 13:56:48;;;;;;;44.50;42.03;;;;;;;;;;4946785;28;20054;-74
2021/11/29 13:59:15;;;;;;;45.58;42.25;;;;;;;;;;4942110;28;20050;-77
2021/11/29 14:01:41;;;;;;;44.65;41.47;;;;;;;;;;4947399;28;20045;-75
2021/11/29 14:04:07;;;;;;;45.40;42.10;;;;;;;;;;4945348;28;20055;-74
2021/11/29 14:06:33;;;;;;;43.40;39.97;;;;;;;;;;4946604;28;20046;-74
2021/11/29 14:08:59;;;;;;;48.50;44.80;;;;;;;;;;4944360;28;20043;-75
2021/11/29 14:11:29;;;;;;;50.80;47.13;;;;;;;;;;4947740;28;20193;-75
2021/11/29 14:13:59;;;;;;;51.92;48.65;;;;;;;;;;4945564;28;20035;-74
2021/11/29 14:16:32;;;;;;;50.92;47.55;;;;;;;;;;4944378;28;20038;-74
2021/11/29 14:19:08;;;;;;;50.72;47.35;;;;;;;;;;4940528;28;20052;-74
2021/11/29 14:21:39;;;;;;;44.75;42.10;;;;;;;;;;4948140;28;20049;-73
2021/11/29 14:24:05;;;;;;;53.63;50.35;;;;;;;;;;4944293;28;20136;-74